Time;durP1;ratioP1;P1;durP2;ratioP2;P2;SDS_P1;SDS_P2;PMS_P1;PMS_P2;Temp;Humidity;BMP_temperature;BMP_pressure;BME280_temperature;BME280_humidity;BME280_pressure;Samples;Min_cycle;Max_cycle;Signal;HPM_P1;HPM_P2
2021/03/24 00:02:48;;;;;;;7.71;5.35;;;;;;;1.39;75.55;100177.53;2010984;77;22464;-68
2021/03/24 00:05:51;;;;;;;6.97;5.55;;;;;;;1.34;75.72;100187.56;2011279;80;20430;-68
2021/03/24 00:08:53;;;;;;;9.73;5.01;;;;;;;1.31;76.40;100184.88;2012498;80;20336;-68
2021/03/24 00:11:54;;;;;;;6.57;4.75;;;;;;;1.25;77.12;100183.72;2015108;80;20306;-68
2021/03/24 00:14:56;;;;;;;10.30;4.94;;;;;;;1.19;77.54;100194.53;2011786;80;20358;-68
2021/03/24 00:17:58;;;;;;;7.84;5.34;;;;;;;1.13;77.48;100199.38;2011140;78;21061;-68
2021/03/24 00:21:00;;;;;;;8.32;4.75;;;;;;;1.08;77.11;100194.06;2012217;80;20452;-68
2021/03/24 00:24:03;;;;;;;8.10;4.66;;;;;;;1.06;77.12;100199.88;2011524;80;20344;-68
2021/03/24 00:27:05;;;;;;;8.94;5.34;;;;;;;1.06;77.33;100197.34;2011769;80;20368;-68
2021/03/24 00:30:08;;;;;;;9.30;5.72;;;;;;;1.03;77.55;100203.19;2011438;80;20318;-68
2021/03/24 00:33:13;;;;;;;8.10;5.93;;;;;;;1.03;77.48;100198.06;2059207;70;22187;-68
2021/03/24 00:36:16;;;;;;;7.68;5.46;;;;;;;0.99;77.35;100198.75;2017503;80;20501;-68
2021/03/24 00:39:18;;;;;;;13.11;6.28;;;;;;;0.95;77.15;100207.09;2017285;80;20317;-68
2021/03/24 00:42:19;;;;;;;6.82;5.04;;;;;;;0.90;77.16;100204.31;2016514;80;20325;-68
2021/03/24 00:45:21;;;;;;;6.59;4.79;;;;;;;0.86;76.91;100204.09;2019128;77;20345;-68
2021/03/24 00:48:28;;;;;;;7.85;5.01;;;;;;;0.82;76.76;100195.41;2021928;80;20304;-68
2021/03/24 00:51:30;;;;;;;7.11;4.49;;;;;;;0.81;76.89;100195.31;2022520;80;20404;-68
2021/03/24 00:54:32;;;;;;;6.39;4.43;;;;;;;0.76;76.91;100192.56;2020905;80;20391;-68
2021/03/24 00:57:34;;;;;;;8.61;5.25;;;;;;;0.71;77.03;100185.47;2022036;80;20901;-68
2021/03/24 01:00:39;;;;;;;8.02;5.24;;;;;;;0.66;77.12;100180.13;2020974;80;20841;-68
2021/03/24 01:03:40;;;;;;;7.30;5.11;;;;;;;0.60;76.91;100179.84;2025551;80;20391;-68
2021/03/24 01:06:42;;;;;;;8.36;5.22;;;;;;;0.56;76.82;100172.84;2022439;80;20363;-68
2021/03/24 01:09:44;;;;;;;6.26;4.71;;;;;;;0.53;77.75;100177.78;2021640;80;20328;-68
2021/03/24 01:12:46;;;;;;;6.78;5.14;;;;;;;0.51;77.75;100181.97;2021876;80;21006;-68
2021/03/24 01:15:48;;;;;;;7.70;5.06;;;;;;;0.48;77.75;100176.72;2020207;77;20863;-68
2021/03/24 01:18:50;;;;;;;7.76;5.14;;;;;;;0.44;78.68;100173.13;2022584;80;20473;-67
2021/03/24 01:21:51;;;;;;;8.73;5.26;;;;;;;0.39;79.07;100183.94;2021232;80;20365;-67
2021/03/24 01:24:54;;;;;;;8.98;5.39;;;;;;;0.35;78.68;100177.78;2021832;80;20344;-68
2021/03/24 01:27:57;;;;;;;10.49;5.55;;;;;;;0.32;78.59;100182.75;2022324;80;20380;-67
2021/03/24 01:31:00;;;;;;;8.76;5.46;;;;;;;0.29;78.10;100174.94;2020878;78;23903;-67
2021/03/24 01:34:02;;;;;;;9.29;5.36;;;;;;;0.27;77.95;100182.53;2022006;80;21303;-68
2021/03/24 01:37:04;;;;;;;7.15;4.53;;;;;;;0.27;78.31;100177.41;2021901;80;20730;-67
2021/03/24 01:40:08;;;;;;;9.95;4.81;;;;;;;0.23;78.08;100179.75;2022754;80;20337;-67
2021/03/24 01:43:23;;;;;;;9.99;5.35;;;;;;;0.21;78.39;100171.16;2021842;80;20365;-67
2021/03/24 01:46:24;;;;;;;7.19;5.04;;;;;;;0.17;79.15;100187.09;2021250;77;20800;-67
2021/03/24 01:49:34;;;;;;;8.48;4.66;;;;;;;0.14;79.01;100179.28;2022087;80;20311;-67
2021/03/24 01:52:36;;;;;;;7.44;4.29;;;;;;;0.07;78.98;100177.25;2022296;80;20361;-67
2021/03/24 01:55:41;;;;;;;7.95;5.04;;;;;;;0.01;79.38;100172.72;2021410;80;20785;-67
2021/03/24 01:58:42;;;;;;;8.76;4.78;;;;;;;-0.04;79.50;100175.00;2022234;80;20796;-67
2021/03/24 02:01:44;;;;;;;8.88;4.61;;;;;;;-0.05;79.69;100174.94;2021301;77;20292;-67
2021/03/24 02:04:48;;;;;;;8.66;5.05;;;;;;;-0.11;79.50;100178.06;2022256;80;20381;-67
2021/03/24 02:08:00;;;;;;;6.69;5.00;;;;;;;-0.13;79.15;100171.16;2022026;80;20304;-67
2021/03/24 02:11:11;;;;;;;6.11;5.07;;;;;;;-0.13;78.95;100168.59;2021674;80;20312;-67
2021/03/24 02:14:45;;;;;;;7.53;4.78;;;;;;;-0.13;79.13;100166.91;2021755;80;20324;-67
2021/03/24 02:17:48;;;;;;;6.93;4.64;;;;;;;-0.14;79.60;100162.63;2004657;78;20460;-67
2021/03/24 02:20:58;;;;;;;7.14;4.75;;;;;;;-0.14;80.24;100164.28;2016359;80;20341;-67
2021/03/24 02:24:36;;;;;;;8.20;4.82;;;;;;;-0.18;80.52;100167.47;2015775;80;20362;-67
2021/03/24 02:27:44;;;;;;;6.47;4.08;;;;;;;-0.24;80.74;100172.25;2016600;80;20732;-67
2021/03/24 02:30:48;;;;;;;7.49;4.81;;;;;;;-0.31;80.71;100171.09;2016983;77;21996;-67
2021/03/24 02:33:52;;;;;;;8.27;6.10;;;;;;;-0.32;80.35;100171.88;2022014;80;20350;-67
2021/03/24 02:36:58;;;;;;;10.88;5.45;;;;;;;-0.32;80.04;100177.88;2021637;80;20357;-67
2021/03/24 02:40:03;;;;;;;10.88;5.70;;;;;;;-0.32;79.85;100169.34;2021835;80;20750;-67
2021/03/24 02:43:06;;;;;;;9.11;5.18;;;;;;;-0.34;79.57;100170.94;2022640;80;20337;-67
2021/03/24 02:46:09;;;;;;;9.51;5.26;;;;;;;-0.39;79.58;100177.44;2020634;77;21706;-67
2021/03/24 02:49:12;;;;;;;7.38;4.76;;;;;;;-0.50;79.60;100176.91;2022044;80;20308;-67
2021/03/24 02:52:15;;;;;;;6.80;4.88;;;;;;;-0.58;79.90;100180.72;2022050;80;20383;-67
2021/03/24 02:55:18;;;;;;;7.01;4.68;;;;;;;-0.56;79.81;100184.22;2022180;80;20336;-67
2021/03/24 02:58:20;;;;;;;6.66;5.00;;;;;;;-0.58;79.71;100180.72;2021587;80;20859;-67
2021/03/24 03:01:26;;;;;;;8.54;5.49;;;;;;;-0.61;79.61;100178.91;2021122;77;21911;-67
2021/03/24 03:04:43;;;;;;;8.31;5.74;;;;;;;-0.60;79.71;100179.78;2023279;80;20446;-67
2021/03/24 03:07:50;;;;;;;8.35;5.13;;;;;;;-0.64;80.02;100186.38;2023333;80;20320;-67
2021/03/24 03:10:57;;;;;;;8.04;5.51;;;;;;;-0.63;80.79;100185.59;2023426;80;20446;-67
2021/03/24 03:14:05;;;;;;;9.48;5.86;;;;;;;-0.63;80.58;100184.72;2022606;80;20328;-67
2021/03/24 03:17:21;;;;;;;8.73;5.30;;;;;;;-0.65;80.40;100176.97;2022517;77;24514;-67
2021/03/24 03:20:32;;;;;;;8.39;5.46;;;;;;;-0.66;80.07;100171.81;2023581;80;20234;-67
2021/03/24 03:23:35;;;;;;;11.02;5.28;;;;;;;-0.68;80.05;100176.84;2024272;80;20326;-67
2021/03/24 03:26:42;;;;;;;10.47;6.06;;;;;;;-0.70;79.78;100175.88;2023874;80;20332;-67
2021/03/24 03:29:44;;;;;;;8.63;5.54;;;;;;;-0.70;80.05;100175.88;2024256;80;20205;-67
2021/03/24 03:32:48;;;;;;;8.37;5.93;;;;;;;-0.68;80.35;100169.19;2023047;77;20369;-67
2021/03/24 03:35:53;;;;;;;10.77;5.63;;;;;;;-0.68;80.30;100168.31;2023276;80;20226;-67
2021/03/24 03:39:00;;;;;;;9.88;5.77;;;;;;;-0.70;80.25;100164.81;2024625;80;20159;-67
2021/03/24 03:42:03;;;;;;;8.84;5.49;;;;;;;-0.76;80.35;100164.47;2023246;80;20693;-67
2021/03/24 03:45:07;;;;;;;8.67;6.06;;;;;;;-0.82;80.66;100165.03;2023944;80;20711;-67
2021/03/24 03:48:12;;;;;;;9.55;5.97;;;;;;;-0.80;80.74;100157.44;2023095;77;20738;-67
2021/03/24 03:51:31;;;;;;;10.76;5.59;;;;;;;-0.81;80.82;100158.25;2024030;80;20335;-67
2021/03/24 03:54:37;;;;;;;9.91;5.19;;;;;;;-0.79;80.84;100160.06;2022792;80;20316;-67
2021/03/24 03:57:47;;;;;;;12.39;5.73;;;;;;;-0.80;80.56;100153.22;2023392;80;20222;-66
2021/03/24 04:00:58;;;;;;;10.11;5.94;;;;;;;-0.82;80.41;100151.41;2022242;78;22577;-66
2021/03/24 04:04:16;;;;;;;9.47;5.57;;;;;;;-0.84;80.28;100156.41;2022152;80;20179;-67
2021/03/24 04:07:29;;;;;;;8.44;5.03;;;;;;;-0.87;80.20;100158.81;2021935;80;20293;-67
2021/03/24 04:10:33;;;;;;;11.70;5.26;;;;;;;-0.87;80.12;100161.34;2022399;80;20694;-67
2021/03/24 04:13:42;;;;;;;10.21;5.81;;;;;;;-0.85;80.16;100161.44;2021154;80;20320;-66
2021/03/24 04:16:45;;;;;;;8.82;6.01;;;;;;;-0.85;80.36;100157.22;2020842;77;20894;-66
2021/03/24 04:19:51;;;;;;;12.23;6.56;;;;;;;-0.87;80.76;100156.25;2021867;80;20517;-67
2021/03/24 04:22:56;;;;;;;12.61;7.10;;;;;;;-0.84;80.92;100161.50;2021593;80;20204;-67
2021/03/24 04:26:03;;;;;;;12.39;6.31;;;;;;;-0.86;80.99;100170.75;2022039;80;20205;-67
2021/03/24 04:29:11;;;;;;;12.96;6.55;;;;;;;-0.87;81.18;100174.09;2020947;80;20242;-66
2021/03/24 04:32:14;;;;;;;11.31;7.03;;;;;;;-0.90;81.37;100179.00;2021418;77;20310;-66
2021/03/24 04:35:21;;;;;;;14.23;7.24;;;;;;;-0.92;81.28;100175.50;2021074;80;20217;-66
2021/03/24 04:38:33;;;;;;;10.96;6.00;;;;;;;-0.93;81.06;100176.31;2021830;80;20351;-66
2021/03/24 04:41:39;;;;;;;8.74;5.75;;;;;;;-0.93;81.00;100184.81;2022074;80;20364;-66
2021/03/24 04:44:44;;;;;;;10.26;5.73;;;;;;;-0.92;80.85;100186.56;2021337;80;21081;-66
2021/03/24 04:47:52;;;;;;;11.41;6.72;;;;;;;-0.94;81.09;100177.97;2021493;77;24995;-66
2021/03/24 04:51:11;;;;;;;10.58;5.92;;;;;;;-0.97;80.98;100182.03;2021926;80;20762;-67
2021/03/24 04:54:27;;;;;;;;;;;;;;;-1.00;80.97;100174.22;2021766;80;20175;-66
2021/03/24 04:57:29;;;;;;;9.48;5.27;;;;;;;-1.04;81.06;100169.78;2021184;80;20764;-66
2021/03/24 05:00:45;;;;;;;11.26;6.32;;;;;;;-1.07;81.38;100179.81;2021777;77;21412;-67
2021/03/24 05:03:49;;;;;;;6.82;5.41;;;;;;;-1.05;81.56;100181.63;2021219;80;20189;-67
2021/03/24 05:06:57;;;;;;;9.11;5.26;;;;;;;-1.05;81.73;100194.38;2022004;80;20163;-66
2021/03/24 05:09:59;;;;;;;9.37;5.77;;;;;;;-0.99;82.02;100184.50;2022112;80;20187;-67
2021/03/24 05:13:17;;;;;;;9.93;5.44;;;;;;;-0.99;81.74;100184.50;2022302;80;20183;-67
2021/03/24 05:16:32;;;;;;;9.11;5.63;;;;;;;-0.97;81.51;100185.47;2021402;77;21802;-66
2021/03/24 05:19:34;;;;;;;8.64;5.61;;;;;;;-0.96;81.59;100188.88;2021942;80;20446;-66
2021/03/24 05:22:43;;;;;;;8.32;5.49;;;;;;;-0.92;81.69;100185.69;2021917;80;20192;-66
2021/03/24 05:25:46;;;;;;;12.04;5.66;;;;;;;-0.92;81.32;100189.13;2021477;80;20193;-66
2021/03/24 05:28:53;;;;;;;10.47;5.40;;;;;;;-0.92;81.26;100193.34;2022237;80;20176;-66
2021/03/24 05:31:56;;;;;;;8.34;5.51;;;;;;;-0.93;81.29;100186.50;2020910;77;23662;-66
2021/03/24 05:35:00;;;;;;;9.05;5.60;;;;;;;-0.93;81.40;100184.81;2021918;80;20333;-66
2021/03/24 05:38:04;;;;;;;9.47;5.81;;;;;;;-0.92;81.43;100185.69;2021692;80;20358;-66
2021/03/24 05:41:10;;;;;;;9.57;5.63;;;;;;;-0.97;81.57;100179.50;2021984;80;20163;-67
2021/03/24 05:44:34;;;;;;;9.18;5.96;;;;;;;-0.95;81.59;100180.44;2021272;80;20492;-66
2021/03/24 05:48:13;;;;;;;10.41;5.82;;;;;;;-0.93;81.16;100177.19;2021563;77;20191;-66
2021/03/24 05:51:36;;;;;;;13.35;5.90;;;;;;;-0.86;80.85;100180.97;2021955;80;20155;-67
2021/03/24 05:54:49;;;;;;;13.06;6.24;;;;;;;-0.78;81.16;100178.78;2021970;80;20304;-66
2021/03/24 05:58:11;;;;;;;10.89;5.84;;;;;;;-0.75;81.44;100179.84;2021650;80;20319;-67
2021/03/24 06:01:33;;;;;;;10.18;6.49;;;;;;;-0.69;81.77;100179.31;2021077;77;20958;-66
2021/03/24 06:04:38;;;;;;;9.82;5.75;;;;;;;-0.68;81.67;100175.97;2021398;80;20163;-66
2021/03/24 06:07:59;;;;;;;10.18;6.03;;;;;;;-0.63;81.19;100183.03;2022271;80;20431;-67
2021/03/24 06:11:24;;;;;;;10.62;6.37;;;;;;;-0.56;80.92;100191.00;2022409;80;20385;-67
2021/03/24 06:14:45;;;;;;;10.74;6.38;;;;;;;-0.50;80.82;100186.25;2021388;80;20196;-67
2021/03/24 06:18:17;;;;;;;8.79;5.46;;;;;;;-0.38;80.94;100197.06;2021272;77;20889;-67
2021/03/24 06:21:44;;;;;;;11.38;6.13;;;;;;;-0.22;81.01;100204.72;2021109;80;20347;-67
2021/03/24 06:25:17;;;;;;;11.68;6.38;;;;;;;-0.07;81.18;100197.84;2022065;80;20963;-67
2021/03/24 06:28:41;;;;;;;10.40;6.20;;;;;;;0.10;81.53;100208.91;2021720;80;20385;-67
2021/03/24 06:32:26;;;;;;;11.57;7.32;;;;;;;0.17;81.48;100210.06;2019402;77;20351;-67
2021/03/24 06:36:02;;;;;;;10.31;5.45;;;;;;;0.42;81.81;100207.94;2019552;80;20320;-67
2021/03/24 06:39:28;;;;;;;9.30;5.96;;;;;;;0.78;80.92;100201.19;2019579;80;20341;-68
2021/03/24 06:43:06;;;;;;;10.81;5.60;;;;;;;0.89;80.76;100204.22;2019154;80;20734;-68
2021/03/24 06:46:21;;;;;;;12.02;6.78;;;;;;;0.90;80.60;100198.34;2018643;77;22254;-68
2021/03/24 06:49:47;;;;;;;15.51;7.36;;;;;;;0.98;80.71;100196.13;2019274;80;20469;-68
2021/03/24 06:53:19;;;;;;;11.82;5.90;;;;;;;1.50;79.62;100194.25;2019813;80;20348;-68
2021/03/24 06:56:38;;;;;;;11.66;7.04;;;;;;;1.84;78.37;100195.72;2024323;80;20462;-68
2021/03/24 06:59:51;;;;;;;13.79;7.04;;;;;;;2.11;77.49;100197.75;2020313;80;20337;-70
2021/03/24 07:03:28;;;;;;;9.89;7.11;;;;;;;2.29;76.56;100191.66;2019852;77;20214;-70
2021/03/24 07:06:42;;;;;;;10.51;6.93;;;;;;;2.48;76.24;100196.72;2005247;80;20346;-68
2021/03/24 07:10:22;;;;;;;13.55;7.49;;;;;;;2.61;75.48;100195.53;2020074;80;20324;-68
2021/03/24 07:13:42;;;;;;;13.82;6.74;;;;;;;2.98;75.02;100196.16;2020646;80;20857;-69
2021/03/24 07:17:06;;;;;;;15.05;7.71;;;;;;;3.32;73.82;100197.47;2019896;77;20207;-71
2021/03/24 07:20:37;;;;;;;17.19;8.41;;;;;;;3.72;72.78;100204.91;2020222;80;20312;-69
2021/03/24 07:24:16;;;;;;;13.16;8.31;;;;;;;4.05;72.15;100191.53;2020090;80;20308;-70
2021/03/24 07:27:52;;;;;;;17.15;8.99;;;;;;;4.46;70.92;100191.19;2020590;80;20483;-70
2021/03/24 07:31:15;;;;;;;16.59;8.93;;;;;;;4.92;69.98;100191.81;2019660;77;20906;-70
2021/03/24 07:34:28;;;;;;;14.91;9.00;;;;;;;5.27;68.98;100198.91;2019900;80;20370;-71
2021/03/24 07:37:54;;;;;;;12.02;8.57;;;;;;;5.52;67.53;100203.06;2020458;80;20312;-71
2021/03/24 07:41:42;;;;;;;14.56;8.39;;;;;;;5.78;66.44;100205.50;2019958;80;20311;-70
2021/03/24 07:45:05;;;;;;;13.57;8.43;;;;;;;6.14;65.74;100201.38;2019988;80;21044;-71
2021/03/24 07:48:22;;;;;;;12.04;8.23;;;;;;;6.47;64.97;100208.25;2009733;77;21609;-70
2021/03/24 07:51:26;;;;;;;15.82;9.05;;;;;;;6.70;64.66;100212.25;2009785;80;20461;-71
2021/03/24 07:55:00;;;;;;;13.70;9.41;;;;;;;6.93;64.20;100203.34;2007560;80;20334;-70
2021/03/24 07:58:24;;;;;;;12.14;8.75;;;;;;;7.23;62.75;100204.88;2008290;80;20549;-71
2021/03/24 08:01:58;;;;;;;14.06;8.90;;;;;;;7.58;62.81;100211.66;2013470;77;21561;-71
2021/03/24 08:05:19;;;;;;;13.85;9.06;;;;;;;7.77;61.09;100206.88;2018906;80;20344;-71
2021/03/24 08:08:54;;;;;;;12.27;9.07;;;;;;;8.07;61.17;100201.41;2015752;80;20207;-71
2021/03/24 08:12:12;;;;;;;12.65;8.98;;;;;;;8.34;60.19;100195.91;2020149;80;20332;-71
2021/03/24 08:15:39;;;;;;;14.98;9.30;;;;;;;8.50;58.91;100197.91;2019289;77;21838;-74
2021/03/24 08:18:55;;;;;;;12.48;9.41;;;;;;;8.86;59.82;100208.00;2019671;80;20444;-73
2021/03/24 08:22:03;;;;;;;13.41;9.34;;;;;;;9.23;58.50;100198.16;2019930;80;20793;-70
2021/03/24 08:25:28;;;;;;;16.45;9.59;;;;;;;9.49;57.53;100201.97;2019431;80;20237;-70
2021/03/24 08:28:54;;;;;;;14.25;9.90;;;;;;;9.56;56.63;100197.75;2019295;80;20207;-69
2021/03/24 08:32:43;;;;;;;13.89;9.25;;;;;;;9.71;55.27;100200.53;2017719;77;26941;-70
2021/03/24 08:36:11;;;;;;;11.09;8.89;;;;;;;9.90;55.59;100196.44;2001004;80;20176;-69
2021/03/24 08:39:46;;;;;;;11.50;8.24;;;;;;;10.09;54.71;100198.38;2009857;80;20947;-70
2021/03/24 08:43:14;;;;;;;10.60;8.26;;;;;;;10.45;54.89;100189.22;2010674;80;20217;-70
2021/03/24 08:46:30;;;;;;;10.79;7.91;;;;;;;10.76;54.57;100186.00;2010902;77;20693;-70
2021/03/24 08:49:35;;;;;;;11.88;8.86;;;;;;;10.92;53.65;100180.91;2014924;80;20183;-70
2021/03/24 08:52:50;;;;;;;11.65;8.01;;;;;;;10.98;52.51;100181.00;2015120;80;20226;-70
2021/03/24 08:56:03;;;;;;;11.94;9.68;;;;;;;11.25;52.55;100180.28;2014920;80;20858;-70
2021/03/24 08:59:28;;;;;;;11.14;8.56;;;;;;;11.52;50.43;100175.22;2015551;80;20167;-70
2021/03/24 09:02:55;;;;;;;10.89;8.40;;;;;;;11.43;50.92;100168.22;2009724;78;20299;-70
2021/03/24 09:06:06;;;;;;;12.94;9.29;;;;;;;11.80;51.01;100165.81;2009514;80;20213;-71
2021/03/24 09:09:35;;;;;;;11.66;8.46;;;;;;;12.01;49.93;100164.97;2009854;80;20216;-72
2021/03/24 09:12:50;;;;;;;11.71;8.35;;;;;;;12.04;49.78;100163.28;2009343;80;20192;-70
2021/03/24 09:16:13;;;;;;;11.50;8.64;;;;;;;12.43;48.15;100172.00;2007661;77;20970;-71
2021/03/24 09:19:30;;;;;;;11.64;9.18;;;;;;;12.71;48.00;100172.84;2009704;80;20291;-70
2021/03/24 09:22:48;;;;;;;10.99;7.99;;;;;;;12.88;47.14;100171.09;2009671;80;21018;-71
2021/03/24 09:26:23;;;;;;;10.29;8.57;;;;;;;13.14;47.38;100165.88;2009421;80;20323;-70
2021/03/24 09:29:57;;;;;;;14.64;8.57;;;;;;;13.46;47.52;100163.16;2008926;80;20186;-70
2021/03/24 09:33:23;;;;;;;10.18;8.06;;;;;;;13.86;45.69;100169.09;2009877;77;21058;-71
2021/03/24 09:36:52;;;;;;;11.00;8.76;;;;;;;13.99;45.76;100162.03;2020799;80;20559;-70
2021/03/24 09:39:59;;;;;;;12.91;9.65;;;;;;;14.37;46.19;100160.94;2023326;79;20215;-70
2021/03/24 09:43:22;;;;;;;12.65;9.38;;;;;;;14.58;42.96;100160.81;2019883;80;20480;-71
2021/03/24 09:46:49;;;;;;;12.94;8.88;;;;;;;14.44;43.33;100160.91;2019596;77;20506;-71
2021/03/24 09:50:02;;;;;;;10.85;8.46;;;;;;;14.76;44.23;100152.81;2020177;80;20285;-71
2021/03/24 09:53:20;;;;;;;11.31;8.94;;;;;;;15.12;43.93;100155.94;2021312;80;20204;-72
2021/03/24 09:56:24;;;;;;;12.84;9.43;;;;;;;15.24;42.74;100147.06;2020699;80;20253;-72
2021/03/24 09:59:46;;;;;;;12.00;9.44;;;;;;;15.17;42.61;100146.28;2020345;80;20192;-71
2021/03/24 10:02:53;;;;;;;12.46;9.14;;;;;;;15.29;41.65;100140.06;2019102;77;25274;-71
2021/03/24 10:05:59;;;;;;;14.63;9.75;;;;;;;15.41;41.96;100139.88;2020065;80;21076;-71
2021/03/24 10:09:09;;;;;;;14.14;10.24;;;;;;;15.64;41.85;100130.06;2020662;80;20398;-72
2021/03/24 10:12:17;;;;;;;13.35;9.57;;;;;;;15.78;40.51;100121.97;2020213;80;20223;-72
2021/03/24 10:15:33;;;;;;;16.13;9.71;;;;;;;15.95;41.23;100127.84;2018706;77;43402;-71
2021/03/24 10:18:44;;;;;;;12.41;9.56;;;;;;;16.06;40.21;100122.47;2017837;80;20216;-72
2021/03/24 10:21:53;;;;;;;13.84;9.90;;;;;;;15.90;39.15;100119.19;2019629;80;20644;-71
2021/03/24 10:25:05;;;;;;;14.69;9.38;;;;;;;16.10;38.70;100118.03;2019945;80;20236;-72
2021/03/24 10:28:10;;;;;;;14.06;9.40;;;;;;;16.20;39.44;100112.66;2020469;80;20195;-71
2021/03/24 10:31:19;;;;;;;15.85;9.57;;;;;;;16.50;39.33;100106.00;2019432;78;20364;-71
2021/03/24 10:34:27;;;;;;;13.25;9.76;;;;;;;16.61;39.19;100103.22;2019318;80;20766;-71
2021/03/24 10:37:54;;;;;;;17.04;10.05;;;;;;;16.80;39.19;100114.28;2019974;80;20179;-71
2021/03/24 10:41:13;;;;;;;16.56;9.68;;;;;;;16.94;37.89;100100.91;2020061;80;20182;-71
2021/03/24 10:44:43;;;;;;;13.76;8.99;;;;;;;16.92;37.81;100095.69;2019741;80;20293;-71
2021/03/24 10:47:56;;;;;;;14.41;10.16;;;;;;;17.04;37.53;100094.56;2019021;77;24935;-71
2021/03/24 10:51:10;;;;;;;16.11;11.84;;;;;;;16.80;36.67;100095.91;2020439;80;20202;-71
2021/03/24 10:54:17;;;;;;;14.60;9.57;;;;;;;16.59;35.54;100089.28;2020165;80;20187;-71
2021/03/24 10:57:40;;;;;;;18.35;10.15;;;;;;;16.58;38.17;100083.16;2020271;80;20228;-71
2021/03/24 11:00:49;;;;;;;12.95;8.69;;;;;;;16.91;37.76;100073.00;2028954;77;21034;-82
2021/03/24 11:07:32;;;;;;;11.18;9.18;;;;;;;17.23;37.92;100064.44;2021317;70;20651;-82
2021/03/24 11:10:53;;;;;;;13.50;9.30;;;;;;;17.34;35.96;100066.88;2007373;80;20239;-80
2021/03/24 11:14:01;;;;;;;11.88;8.44;;;;;;;17.61;37.17;100081.19;2009574;80;20192;-80
2021/03/24 11:17:04;;;;;;;13.35;9.59;;;;;;;17.86;36.88;100074.50;2013556;77;20536;-80
2021/03/24 11:20:43;;;;;;;13.50;8.39;;;;;;;18.08;36.12;100065.19;2011686;80;20168;-80
2021/03/24 11:23:50;;;;;;;12.09;8.63;;;;;;;18.28;36.72;100061.19;2012907;80;20265;-79
2021/03/24 11:30:27;;;;;;;13.20;8.71;;;;;;;18.13;33.67;100059.81;2012831;70;20345;-78
2021/03/24 11:33:49;;;;;;;14.55;9.09;;;;;;;17.66;34.86;100051.28;2010366;80;21186;-81
2021/03/24 11:40:49;;;;;;;12.82;8.65;;;;;;;18.23;35.35;100057.84;2015603;70;20698;-82
2021/03/24 11:44:14;;;;;;;13.16;8.65;;;;;;;18.28;35.46;100056.81;2017364;80;20173;-78
2021/03/24 11:50:59;;;;;;;12.16;7.91;;;;;;;18.63;33.89;100049.81;2027848;70;20452;-81
2021/03/24 11:54:06;;;;;;;10.21;7.64;;;;;;;18.45;32.63;100045.88;2023957;80;20205;-83
2021/03/24 12:11:12;;;;;;;12.49;7.80;;;;;;;18.81;33.31;100025.63;2033096;70;20265;-85
2021/03/24 12:14:25;;;;;;;10.41;7.32;;;;;;;19.05;32.96;100024.09;2030182;80;20147;-83
2021/03/24 12:17:35;;;;;;;11.19;7.76;;;;;;;19.27;33.03;100012.00;2033695;77;22283;-84
2021/03/24 12:24:09;;;;;;;8.76;6.96;;;;;;;19.21;30.73;100008.69;2037808;70;20164;-82
2021/03/24 12:27:15;;;;;;;9.98;7.22;;;;;;;19.38;32.13;100005.53;2026124;80;20172;-81
2021/03/24 12:41:14;;;;;;;11.85;7.65;;;;;;;19.51;31.79;99994.59;2026818;70;20374;-81
2021/03/24 12:44:27;;;;;;;11.47;7.98;;;;;;;19.12;31.25;99988.78;2026111;80;20167;-83
2021/03/24 12:47:37;;;;;;;10.21;7.10;;;;;;;19.15;31.47;99986.03;2028802;77;212344;-85
2021/03/24 12:51:25;;;;;;;12.38;8.41;;;;;;;19.37;33.41;99980.97;2034294;69;21187;-80
2021/03/24 12:54:27;;;;;;;10.66;6.61;;;;;;;19.36;30.94;99970.50;2028265;80;20152;-83
2021/03/24 12:57:38;;;;;;;11.49;7.65;;;;;;;19.46;31.92;99970.16;2028652;80;20168;-85
2021/03/24 13:08:12;;;;;;;10.74;6.57;;;;;;;19.54;32.36;99951.50;2030185;70;20296;-81
2021/03/24 13:11:42;;;;;;;10.94;8.41;;;;;;;19.74;31.11;99962.25;2018592;80;20237;-82
2021/03/24 13:15:16;;;;;;;11.01;7.78;;;;;;;19.44;29.82;99950.91;2013814;80;20428;-77
2021/03/24 13:18:21;;;;;;;14.44;8.15;;;;;;;19.46;31.24;99948.25;2014339;80;20188;-79
2021/03/24 13:21:55;;;;;;;10.98;7.38;;;;;;;18.91;32.09;99935.00;2016749;80;20225;-80
2021/03/24 13:25:30;;;;;;;10.09;7.18;;;;;;;19.12;32.25;99943.16;2033081;70;20302;-80
2021/03/24 13:28:43;;;;;;;10.35;7.38;;;;;;;19.44;31.75;99939.53;2028957;80;20167;-82
2021/03/24 13:35:31;;;;;;;7.99;5.90;;;;;;;19.36;31.67;99934.47;2021438;70;20189;-73
2021/03/24 13:38:44;;;;;;;7.71;6.22;;;;;;;19.48;31.61;99927.97;2008059;80;20199;-79
2021/03/24 13:41:56;;;;;;;12.41;6.55;;;;;;;19.77;30.72;99929.72;2017334;80;20293;-81
2021/03/24 13:45:07;;;;;;;10.04;5.99;;;;;;;19.80;30.37;99921.69;2018617;80;20206;-82
2021/03/24 13:48:19;;;;;;;9.56;6.51;;;;;;;19.95;30.98;99922.94;2006732;80;20197;-79
2021/03/24 13:51:35;;;;;;;7.44;5.99;;;;;;;19.86;30.44;99914.44;2010553;80;20247;-81
2021/03/24 13:55:05;;;;;;;7.95;5.86;;;;;;;19.46;29.96;99906.97;2007769;81;20205;-81
2021/03/24 13:58:07;;;;;;;6.79;4.97;;;;;;;19.57;31.63;99910.16;2010429;81;20202;-80
2021/03/24 14:01:17;;;;;;;8.93;5.19;;;;;;;19.79;30.03;99902.38;2008805;81;20815;-80
2021/03/24 14:04:37;;;;;;;7.11;5.22;;;;;;;20.05;29.33;99895.34;2008527;81;20217;-81
2021/03/24 14:07:47;;;;;;;7.07;5.01;;;;;;;20.11;28.86;99892.50;2008992;81;21304;-81
2021/03/24 14:11:02;;;;;;;7.82;5.13;;;;;;;20.15;28.86;99888.84;2009506;80;20170;-81
2021/03/24 14:14:23;;;;;;;10.20;5.51;;;;;;;20.27;29.15;99882.25;2004979;80;20863;-80
2021/03/24 14:18:04;;;;;;;9.10;5.21;;;;;;;20.26;28.29;99877.88;2012085;77;20914;-81
2021/03/24 14:21:13;;;;;;;10.39;5.96;;;;;;;20.30;28.68;99880.38;2014047;80;20199;-81
2021/03/24 14:24:36;;;;;;;7.53;6.00;;;;;;;20.20;28.96;99871.94;2008357;80;20197;-79
2021/03/24 14:27:43;;;;;;;10.75;5.09;;;;;;;19.89;29.02;99866.88;2010563;80;20284;-77
2021/03/24 14:30:53;;;;;;;6.94;4.53;;;;;;;19.92;29.78;99866.75;2006946;80;21056;-77
2021/03/24 14:34:17;;;;;;;5.89;4.90;;;;;;;19.94;29.04;99865.88;2010035;80;20220;-77
2021/03/24 14:37:34;;;;;;;6.64;5.34;;;;;;;20.00;28.65;99858.59;2014121;80;20627;-81
2021/03/24 14:40:57;;;;;;;11.64;5.99;;;;;;;20.12;28.62;99850.25;2021594;80;20586;-81
2021/03/24 14:44:22;;;;;;;9.10;5.14;;;;;;;20.13;29.38;99851.97;2023222;80;20184;-80
2021/03/24 14:47:40;;;;;;;10.45;7.15;;;;;;;20.18;29.05;99852.66;2019734;78;48135;-80
2021/03/24 14:51:07;;;;;;;9.40;5.43;;;;;;;20.12;28.86;99855.53;2020713;80;20385;-81
2021/03/24 14:54:13;;;;;;;8.59;6.20;;;;;;;20.10;28.91;99852.06;2019246;80;20222;-81
2021/03/24 14:57:31;;;;;;;9.66;6.55;;;;;;;20.09;29.20;99838.94;2021094;80;20206;-81
2021/03/24 15:00:38;;;;;;;10.57;6.15;;;;;;;19.97;29.76;99839.41;2020005;80;20266;-82
2021/03/24 15:03:42;;;;;;;8.34;5.53;;;;;;;19.88;30.03;99837.94;2022297;80;20176;-81
2021/03/24 15:06:50;;;;;;;7.91;4.49;;;;;;;19.91;29.84;99841.31;2022447;80;20189;-81
2021/03/24 15:10:05;;;;;;;8.50;4.41;;;;;;;19.92;29.68;99839.53;2021273;80;20210;-80
2021/03/24 15:13:24;;;;;;;5.99;5.00;;;;;;;20.00;29.48;99837.50;2016696;80;20784;-80
2021/03/24 15:16:40;;;;;;;7.84;4.57;;;;;;;19.95;28.97;99831.56;2018246;80;20200;-80
2021/03/24 15:20:04;;;;;;;7.04;4.84;;;;;;;20.01;29.41;99833.09;2017351;80;20237;-80
2021/03/24 15:23:24;;;;;;;6.54;5.06;;;;;;;20.01;29.21;99835.72;2019901;80;20176;-80
2021/03/24 15:26:44;;;;;;;6.90;4.76;;;;;;;19.92;29.90;99829.84;2022994;80;20238;-81
2021/03/24 15:29:57;;;;;;;8.99;4.60;;;;;;;19.75;29.21;99828.72;2020391;80;20168;-80
2021/03/24 15:33:14;;;;;;;5.47;4.47;;;;;;;19.84;29.38;99820.53;2020129;80;20198;-81
2021/03/24 15:36:19;;;;;;;7.16;4.85;;;;;;;20.01;29.49;99827.81;2019620;80;20173;-81
2021/03/24 15:39:28;;;;;;;6.21;4.22;;;;;;;20.02;29.21;99822.50;2020392;80;20188;-81
2021/03/24 15:42:52;;;;;;;5.80;4.56;;;;;;;20.23;29.37;99818.22;2019730;80;20198;-80
2021/03/24 15:45:56;;;;;;;6.39;4.10;;;;;;;20.22;28.41;99806.81;2019120;78;21051;-80
2021/03/24 15:49:05;;;;;;;5.56;4.04;;;;;;;20.43;28.81;99804.31;2019413;80;20176;-79
2021/03/24 15:52:23;;;;;;;7.11;4.34;;;;;;;20.51;28.77;99799.63;2019144;80;20276;-81
2021/03/24 15:55:32;;;;;;;9.49;5.86;;;;;;;20.78;28.63;99802.94;2018138;80;20216;-79